createdAt,value
2022-11-25T00:00:31.737Z,53.68
2022-11-25T00:02:58.441Z,53.39
2022-11-25T00:05:25.913Z,53.50
2022-11-25T00:07:52.551Z,53.15
2022-11-25T00:10:19.515Z,52.93
2022-11-25T00:12:46.027Z,53.18
2022-11-25T00:15:12.577Z,52.97
2022-11-25T00:17:39.297Z,52.91
2022-11-25T00:20:06.594Z,53.14
2022-11-25T00:22:33.509Z,53.36
2022-11-25T00:25:00.119Z,53.95
2022-11-25T00:27:26.683Z,54.41
2022-11-25T00:29:53.205Z,54.30
2022-11-25T00:32:19.955Z,54.19
2022-11-25T00:34:46.617Z,53.62
2022-11-25T00:37:13.778Z,52.82
2022-11-25T00:39:40.339Z,52.25
2022-11-25T00:42:25.602Z,52.14
2022-11-25T00:44:52.616Z,51.86
2022-11-25T00:47:20.825Z,51.65
2022-11-25T00:49:54.719Z,51.61
2022-11-25T00:52:23.632Z,51.31
2022-11-25T00:54:51.331Z,51.80
2022-11-25T00:57:20.200Z,52.34
2022-11-25T00:59:47.544Z,52.73
2022-11-25T01:02:15.649Z,53.07
2022-11-25T01:04:43.922Z,52.74
2022-11-25T01:07:11.361Z,52.35
2022-11-25T01:09:37.986Z,53.27
2022-11-25T01:12:05.373Z,53.27
2022-11-25T01:14:33.051Z,53.68
2022-11-25T01:17:00.325Z,53.62
2022-11-25T01:19:27.129Z,53.55
2022-11-25T01:21:53.764Z,53.55
2022-11-25T01:24:20.372Z,53.13
2022-11-25T01:26:47.073Z,52.65
2022-11-25T01:29:19.036Z,52.54
2022-11-25T01:31:46.622Z,52.29
2022-11-25T01:34:17.774Z,51.95
2022-11-25T01:36:45.249Z,53.36
2022-11-25T01:39:20.314Z,54.76
2022-11-25T01:41:48.573Z,55.14
2022-11-25T01:44:21.554Z,55.79
2022-11-25T01:46:51.332Z,57.03
2022-11-25T01:49:24.807Z,56.32
2022-11-25T01:51:59.481Z,56.16
2022-11-25T01:54:29.496Z,55.30
2022-11-25T01:57:03.960Z,55.67
2022-11-25T01:59:34.813Z,55.45
2022-11-25T02:02:01.836Z,55.05
2022-11-25T02:04:33.866Z,54.70
2022-11-25T02:07:22.565Z,54.32
2022-11-25T02:09:50.124Z,55.14
2022-11-25T02:12:18.535Z,55.84
2022-11-25T02:14:46.459Z,55.13
2022-11-25T02:17:13.098Z,54.70
2022-11-25T02:19:45.573Z,54.59
2022-11-25T02:22:22.001Z,54.63
2022-11-25T02:24:54.428Z,54.49
2022-11-25T02:27:21.117Z,54.42
2022-11-25T02:29:48.528Z,54.99
2022-11-25T02:32:21.885Z,55.58
2022-11-25T02:34:49.754Z,56.53
2022-11-25T02:37:21.009Z,56.93
2022-11-25T02:39:48.672Z,58.97
2022-11-25T02:42:18.333Z,59.79
2022-11-25T02:44:47.974Z,59.57
2022-11-25T02:47:15.033Z,57.98
2022-11-25T02:49:41.666Z,57.95
2022-11-25T02:52:09.337Z,58.07
2022-11-25T02:54:37.151Z,58.03
2022-11-25T02:57:04.060Z,57.13
2022-11-25T02:59:33.625Z,57.46
2022-11-25T03:02:00.433Z,56.79
2022-11-25T03:04:27.281Z,56.17
2022-11-25T03:06:53.823Z,56.09
2022-11-25T03:09:20.669Z,55.29
2022-11-25T03:12:05.928Z,54.73
2022-11-25T03:14:33.161Z,55.54
2022-11-25T03:16:59.916Z,55.15
2022-11-25T03:19:27.942Z,55.25
2022-11-25T03:21:54.508Z,56.04
2022-11-25T03:24:21.152Z,56.27
2022-11-25T03:26:49.146Z,56.10
2022-11-25T03:29:15.750Z,56.87
2022-11-25T03:31:42.502Z,56.68
2022-11-25T03:34:10.982Z,56.52
2022-11-25T03:36:37.643Z,56.49
2022-11-25T03:39:05.099Z,57.18
2022-11-25T03:41:33.880Z,58.07
2022-11-25T03:44:00.890Z,57.61
2022-11-25T03:46:27.560Z,57.83
2022-11-25T03:48:55.115Z,57.46
2022-11-25T03:51:22.568Z,58.44
2022-11-25T03:53:49.435Z,58.47
2022-11-25T03:56:16.555Z,58.20
2022-11-25T03:58:43.716Z,58.66
2022-11-25T04:01:11.896Z,58.33
2022-11-25T04:03:38.520Z,58.44
2022-11-25T04:06:05.152Z,57.57
2022-11-25T04:08:32.251Z,57.05
2022-11-25T04:10:59.163Z,57.30
2022-11-25T04:13:29.749Z,57.39
2022-11-25T04:15:57.345Z,56.68
2022-11-25T04:18:25.323Z,56.66
2022-11-25T04:20:55.147Z,56.92
2022-11-25T04:23:22.217Z,56.94
2022-11-25T04:25:55.684Z,56.74
2022-11-25T04:28:28.537Z,56.29
2022-11-25T04:30:55.183Z,56.09
2022-11-25T04:33:22.258Z,55.43
2022-11-25T04:35:48.880Z,56.25
2022-11-25T04:38:15.932Z,56.56
2022-11-25T04:40:42.600Z,56.12
2022-11-25T04:43:21.748Z,55.90
2022-11-25T04:48:41.277Z,56.09
2022-11-25T04:51:08.733Z,56.55
2022-11-25T04:53:35.428Z,56.73
2022-11-25T04:56:02.012Z,57.59
2022-11-25T04:58:52.609Z,57.97
2022-11-25T05:01:19.482Z,58.04
2022-11-25T05:03:55.987Z,58.57
2022-11-25T05:06:25.879Z,59.42
2022-11-25T05:08:53.006Z,59.12
2022-11-25T05:11:21.044Z,58.74
2022-11-25T05:13:47.936Z,59.10
2022-11-25T05:16:14.560Z,59.73
2022-11-25T05:18:41.276Z,59.67
2022-11-25T05:21:07.884Z,59.60
2022-11-25T05:23:38.779Z,61.64
2022-11-25T05:26:05.468Z,61.14
2022-11-25T05:28:44.275Z,61.35
2022-11-25T05:31:12.419Z,61.20
2022-11-25T05:33:39.116Z,61.20
2022-11-25T05:36:07.924Z,60.42
2022-11-25T05:38:43.246Z,60.94
2022-11-25T05:41:13.231Z,61.15
2022-11-25T05:43:42.962Z,60.34
2022-11-25T05:46:10.249Z,60.11
2022-11-25T05:48:42.980Z,59.59
2022-11-25T05:51:09.733Z,60.71
2022-11-25T05:53:37.372Z,60.39
2022-11-25T05:56:06.671Z,60.70
2022-11-25T05:58:59.928Z,62.25
2022-11-25T06:01:38.098Z,60.94
2022-11-25T06:04:05.208Z,61.49
2022-11-25T06:06:32.500Z,60.35
2022-11-25T06:08:59.924Z,57.74
2022-11-25T06:11:27.377Z,56.91
2022-11-25T06:13:57.105Z,58.06
2022-11-25T06:16:24.869Z,59.28
2022-11-25T06:19:06.559Z,59.78
2022-11-25T06:21:33.604Z,58.79
2022-11-25T06:24:01.156Z,59.02
2022-11-25T06:26:28.347Z,59.03
2022-11-25T06:28:56.451Z,60.21
2022-11-25T06:31:26.276Z,61.36
2022-11-25T06:34:09.664Z,62.85
2022-11-25T06:36:38.528Z,63.03
2022-11-25T06:39:05.178Z,63.39
2022-11-25T06:41:31.736Z,62.85
2022-11-25T06:43:58.737Z,64.01
2022-11-25T06:46:25.708Z,64.76
2022-11-25T06:48:55.452Z,64.61
2022-11-25T06:51:24.400Z,64.51
2022-11-25T06:53:51.063Z,63.46
2022-11-25T06:56:19.408Z,63.31
2022-11-25T06:58:47.522Z,64.46
2022-11-25T07:01:16.812Z,64.43
2022-11-25T07:03:44.779Z,63.33
2022-11-25T07:06:16.681Z,63.73
2022-11-25T07:08:44.230Z,63.51
2022-11-25T07:11:16.361Z,64.38
2022-11-25T07:13:43.008Z,64.89
2022-11-25T07:16:11.446Z,63.99
2022-11-25T07:18:40.927Z,65.79
2022-11-25T07:21:13.925Z,66.82
2022-11-25T07:23:41.739Z,64.91
2022-11-25T07:26:11.623Z,64.01
2022-11-25T07:28:39.225Z,63.35
2022-11-25T07:31:32.415Z,61.86
2022-11-25T07:34:06.387Z,62.90
2022-11-25T07:36:34.898Z,63.72
2022-11-25T07:39:06.232Z,63.28
2022-11-25T07:41:33.511Z,63.26
2022-11-25T07:44:03.674Z,62.79
2022-11-25T07:46:39.414Z,61.85
2022-11-25T07:49:09.628Z,61.21
2022-11-25T07:51:42.829Z,61.27
2022-11-25T07:54:12.036Z,63.06
2022-11-25T07:56:41.200Z,63.21
2022-11-25T07:59:10.849Z,61.88
2022-11-25T08:01:37.517Z,63.60
2022-11-25T08:04:04.955Z,63.33
2022-11-25T08:06:31.496Z,63.14
2022-11-25T08:08:58.454Z,63.81
2022-11-25T08:11:28.311Z,63.74
2022-11-25T08:13:55.569Z,63.47
2022-11-25T08:16:25.018Z,64.12
2022-11-25T08:18:51.695Z,62.64
2022-11-25T08:21:19.327Z,62.91
2022-11-25T08:23:48.832Z,62.88
2022-11-25T08:26:25.681Z,62.29
2022-11-25T08:28:53.578Z,61.91
2022-11-25T08:31:32.457Z,62.21
2022-11-25T08:33:59.954Z,61.73
2022-11-25T08:36:28.353Z,60.81
2022-11-25T08:38:57.720Z,62.43
2022-11-25T08:41:36.106Z,60.78
2022-11-25T08:44:05.015Z,60.58
2022-11-25T08:46:36.247Z,59.45
2022-11-25T08:49:05.055Z,59.56
2022-11-25T08:51:33.767Z,59.93
2022-11-25T08:54:00.481Z,59.67
2022-11-25T08:56:27.931Z,60.98
2022-11-25T08:58:55.337Z,60.72
2022-11-25T09:01:22.999Z,61.15
2022-11-25T09:03:52.430Z,59.85
2022-11-25T09:06:19.516Z,59.64
2022-11-25T09:08:47.245Z,60.36
2022-11-25T09:11:14.940Z,58.82
2022-11-25T09:13:41.658Z,58.54
2022-11-25T09:16:09.399Z,58.57
2022-11-25T09:18:37.131Z,57.67
2022-11-25T09:21:09.779Z,57.71
2022-11-25T09:23:38.547Z,58.19
2022-11-25T09:26:06.967Z,58.53
2022-11-25T09:28:35.510Z,57.90
2022-11-25T09:31:09.419Z,58.65
2022-11-25T09:33:36.658Z,58.61
2022-11-25T09:36:04.253Z,58.15
2022-11-25T09:38:30.980Z,58.98
2022-11-25T09:41:03.807Z,58.78
2022-11-25T09:44:14.877Z,59.09
2022-11-25T09:47:01.495Z,57.67
2022-11-25T09:50:17.686Z,57.81
2022-11-25T09:53:04.925Z,58.97
2022-11-25T09:55:39.710Z,57.91
2022-11-25T09:58:21.435Z,57.57
2022-11-25T10:00:51.345Z,57.13
2022-11-25T10:03:39.168Z,58.18
2022-11-25T10:06:17.004Z,57.95
2022-11-25T10:08:48.986Z,56.57
2022-11-25T10:11:25.548Z,56.52
2022-11-25T10:13:59.590Z,56.53
2022-11-25T10:16:41.127Z,56.80
2022-11-25T10:19:26.087Z,57.26
2022-11-25T10:21:52.820Z,56.25
2022-11-25T10:24:21.331Z,56.55
2022-11-25T10:26:57.361Z,56.55
2022-11-25T10:29:30.177Z,57.01
2022-11-25T10:32:11.259Z,57.26
2022-11-25T10:34:45.530Z,56.95
2022-11-25T10:37:23.392Z,56.33
2022-11-25T10:39:50.202Z,55.38
2022-11-25T10:42:26.467Z,55.34
2022-11-25T10:44:54.874Z,55.52
2022-11-25T10:47:44.332Z,56.74
2022-11-25T10:50:33.815Z,57.30
2022-11-25T10:53:13.943Z,56.93
2022-11-25T10:55:56.933Z,55.97
2022-11-25T10:58:28.844Z,55.91
2022-11-25T11:01:21.144Z,55.56
2022-11-25T11:03:54.671Z,56.29
2022-11-25T11:06:32.442Z,56.29
2022-11-25T11:08:59.117Z,55.66
2022-11-25T11:11:26.237Z,56.49
2022-11-25T11:14:13.234Z,57.09
2022-11-25T11:16:45.328Z,55.95
2022-11-25T11:19:29.961Z,55.67
2022-11-25T11:21:57.932Z,56.08
2022-11-25T11:24:30.443Z,56.56
2022-11-25T11:27:07.553Z,56.26
2022-11-25T11:29:34.965Z,56.14
2022-11-25T11:32:05.061Z,55.58
2022-11-25T11:34:40.820Z,55.31
2022-11-25T11:37:19.429Z,56.40
2022-11-25T11:40:00.637Z,56.62
2022-11-25T11:42:53.798Z,56.71
2022-11-25T11:45:37.771Z,56.47
2022-11-25T11:48:20.195Z,56.20
2022-11-25T11:51:13.673Z,56.72
2022-11-25T11:54:03.932Z,55.74
2022-11-25T11:56:54.878Z,55.65
2022-11-25T12:00:01.439Z,55.43
2022-11-25T12:02:41.139Z,55.41
2022-11-25T12:05:10.902Z,55.43
2022-11-25T12:07:49.909Z,55.41
2022-11-25T12:10:25.995Z,55.01
2022-11-25T12:12:59.024Z,54.83
2022-11-25T12:15:37.746Z,54.93
2022-11-25T12:18:31.151Z,54.96
2022-11-25T12:21:02.776Z,56.06
2022-11-25T12:23:41.785Z,56.39
2022-11-25T12:26:29.077Z,55.98
2022-11-25T12:29:01.527Z,55.67
2022-11-25T12:31:37.835Z,55.69
2022-11-25T12:34:34.415Z,55.71
2022-11-25T12:37:14.692Z,56.38
2022-11-25T12:39:54.645Z,56.21
2022-11-25T12:42:26.010Z,56.21
2022-11-25T12:45:15.659Z,55.65
2022-11-25T12:47:43.233Z,55.68
2022-11-25T12:50:17.588Z,55.57
2022-11-25T12:52:58.976Z,55.79
2022-11-25T12:55:28.051Z,55.76
2022-11-25T12:58:04.275Z,56.17
2022-11-25T13:00:48.658Z,56.82
2022-11-25T13:03:43.493Z,56.06
2022-11-25T13:06:33.549Z,56.12
2022-11-25T13:09:37.716Z,56.82
2022-11-25T13:12:30.062Z,56.62
2022-11-25T13:15:16.031Z,55.94
2022-11-25T13:17:45.897Z,56.02
2022-11-25T13:20:27.476Z,56.65
2022-11-25T13:23:03.196Z,55.54
2022-11-25T13:25:29.965Z,55.87
2022-11-25T13:27:58.895Z,55.88
2022-11-25T13:30:34.938Z,55.46
2022-11-25T13:33:13.666Z,56.11
2022-11-25T13:36:32.480Z,56.17
2022-11-25T13:39:05.572Z,56.03
2022-11-25T13:41:36.447Z,55.90
2022-11-25T13:44:27.938Z,56.24
2022-11-25T13:46:58.625Z,56.00
2022-11-25T13:49:28.587Z,56.12
2022-11-25T13:52:25.954Z,55.66
2022-11-25T13:54:55.185Z,55.80
2022-11-25T13:57:34.720Z,55.39
2022-11-25T14:00:12.711Z,55.59
2022-11-25T14:02:45.374Z,55.20
2022-11-25T14:05:31.161Z,55.47
2022-11-25T14:08:41.099Z,54.84
2022-11-25T14:11:13.152Z,54.58
2022-11-25T14:14:01.109Z,55.15
2022-11-25T14:16:41.871Z,55.02
2022-11-25T14:19:51.643Z,55.22
2022-11-25T14:22:43.329Z,55.04
2022-11-25T14:26:06.111Z,55.33
2022-11-25T14:29:02.878Z,54.68
2022-11-25T14:31:44.170Z,55.03
2022-11-25T14:34:44.330Z,54.83
2022-11-25T14:37:26.890Z,54.21
2022-11-25T14:40:07.194Z,54.11
2022-11-25T14:42:44.213Z,53.65
2022-11-25T14:45:31.654Z,53.26
2022-11-25T14:48:26.098Z,53.26
2022-11-25T14:51:07.124Z,53.32
2022-11-25T14:53:48.520Z,52.95
2022-11-25T14:56:35.950Z,52.80
2022-11-25T14:59:09.236Z,53.28
2022-11-25T15:01:52.813Z,52.60
2022-11-25T15:04:25.683Z,52.64
2022-11-25T15:06:57.843Z,52.70
2022-11-25T15:09:35.746Z,52.53
2022-11-25T15:12:14.961Z,52.38
2022-11-25T15:14:58.540Z,52.53
2022-11-25T15:17:32.461Z,52.68
2022-11-25T15:20:03.679Z,52.89
2022-11-25T15:22:30.893Z,53.51
2022-11-25T15:25:13.060Z,53.32
2022-11-25T15:27:49.278Z,52.62
2022-11-25T15:30:24.805Z,52.87
2022-11-25T15:32:52.740Z,52.65
2022-11-25T15:35:25.430Z,53.40
2022-11-25T15:37:57.632Z,53.72
2022-11-25T15:40:43.222Z,53.61
2022-11-25T15:43:28.061Z,53.88
2022-11-25T15:46:13.850Z,54.07
2022-11-25T15:48:46.646Z,54.37
2022-11-25T15:51:15.986Z,54.16
2022-11-25T15:53:44.381Z,54.86
2022-11-25T15:56:20.806Z,54.68
2022-11-25T15:59:01.523Z,55.23
2022-11-25T16:01:40.679Z,56.05
2022-11-25T16:04:23.909Z,56.70
2022-11-25T16:06:59.649Z,56.47
2022-11-25T16:09:31.400Z,55.88
2022-11-25T16:12:09.447Z,56.24
2022-11-25T16:14:42.656Z,55.70
2022-11-25T16:17:17.953Z,55.26
2022-11-25T16:19:53.349Z,55.89
2022-11-25T16:22:29.724Z,55.52
2022-11-25T16:25:02.697Z,55.26
2022-11-25T16:27:34.279Z,55.22
2022-11-25T16:30:07.583Z,54.63
2022-11-25T16:32:45.671Z,54.64
2022-11-25T16:35:15.333Z,55.61
2022-11-25T16:37:49.795Z,55.48
2022-11-25T16:40:18.510Z,55.79
2022-11-25T16:42:52.430Z,56.70
2022-11-25T16:45:52.580Z,56.30
2022-11-25T16:48:22.731Z,56.58
2022-11-25T16:50:56.288Z,56.54
2022-11-25T16:53:47.884Z,57.03
2022-11-25T16:56:22.059Z,56.81
2022-11-25T16:58:55.426Z,56.21
2022-11-25T17:01:28.471Z,55.44
2022-11-25T17:04:03.484Z,56.45
2022-11-25T17:06:38.383Z,56.57
2022-11-25T17:09:08.881Z,56.42
2022-11-25T17:11:49.038Z,56.36
2022-11-25T17:14:28.574Z,55.67
2022-11-25T17:17:03.539Z,56.19
2022-11-25T17:19:45.598Z,56.36
2022-11-25T17:22:39.537Z,56.08
2022-11-25T17:25:15.600Z,55.90
2022-11-25T17:27:51.909Z,56.34
2022-11-25T17:30:33.914Z,55.19
2022-11-25T17:33:15.810Z,55.81
2022-11-25T17:35:55.449Z,55.56
2022-11-25T17:39:16.144Z,54.97
2022-11-25T17:41:29.890Z,55.26
2022-11-25T17:44:02.170Z,55.12
2022-11-25T17:46:43.583Z,54.39
2022-11-25T17:52:39.561Z,55.00
2022-11-25T17:55:12.776Z,53.92
2022-11-25T17:58:21.262Z,53.93
2022-11-25T18:04:01.505Z,53.93
2022-11-25T18:06:34.139Z,53.70
2022-11-25T18:09:22.423Z,53.87
2022-11-25T18:12:05.582Z,53.75
2022-11-25T18:14:47.728Z,53.48
2022-11-25T18:17:42.990Z,53.49
2022-11-25T18:20:39.390Z,53.40
2022-11-25T18:23:19.165Z,53.67
2022-11-25T18:25:55.712Z,53.89
2022-11-25T18:28:39.750Z,53.51
2022-11-25T18:31:18.975Z,53.70
2022-11-25T18:33:56.850Z,54.44
2022-11-25T18:36:32.074Z,54.04
2022-11-25T18:39:34.621Z,54.80
2022-11-25T18:45:44.001Z,54.88
2022-11-25T18:48:27.554Z,55.13
2022-11-25T18:51:19.395Z,54.69
2022-11-25T18:53:55.715Z,54.69
2022-11-25T18:57:04.444Z,54.78
2022-11-25T19:03:01.427Z,54.68
2022-11-25T19:05:52.869Z,54.36
2022-11-25T19:08:22.324Z,54.33
2022-11-25T19:11:35.953Z,54.08
2022-11-25T19:14:12.849Z,54.57
2022-11-25T19:16:49.564Z,54.78
2022-11-25T19:19:23.342Z,55.00
2022-11-25T19:24:52.288Z,54.42
2022-11-25T19:27:41.714Z,54.11
2022-11-25T19:30:29.027Z,54.48
2022-11-25T19:33:09.230Z,54.58
2022-11-25T19:35:54.553Z,54.62
2022-11-25T19:38:53.195Z,54.61
2022-11-25T19:41:25.492Z,55.36
2022-11-25T19:44:01.144Z,54.39
2022-11-25T19:47:14.198Z,54.56
2022-11-25T19:49:54.269Z,55.08
2022-11-25T19:55:37.802Z,54.69
2022-11-25T19:58:15.575Z,54.85
2022-11-25T20:01:27.310Z,54.71
2022-11-25T20:04:54.640Z,53.99
2022-11-25T20:08:02.934Z,54.81
2022-11-25T20:10:49.586Z,54.42
2022-11-25T20:13:32.641Z,54.20
2022-11-25T20:16:52.807Z,54.64
2022-11-25T20:25:41.033Z,55.01
2022-11-25T20:28:22.602Z,54.76
2022-11-25T20:31:10.557Z,55.67
2022-11-25T20:33:55.643Z,55.79
2022-11-25T20:40:17.621Z,56.40
2022-11-25T20:46:40.710Z,55.73
2022-11-25T20:49:42.161Z,56.30
2022-11-25T20:52:39.514Z,56.72
2022-11-25T20:55:41.452Z,56.11
2022-11-25T20:58:31.314Z,56.28
2022-11-25T21:01:29.027Z,55.69
2022-11-25T21:04:27.474Z,55.76
2022-11-25T21:07:49.609Z,56.75
2022-11-25T21:10:43.959Z,56.24
2022-11-25T21:16:58.732Z,56.48
2022-11-25T21:19:48.603Z,57.61
2022-11-25T21:25:53.287Z,56.36
2022-11-25T21:28:40.479Z,56.48
2022-11-25T21:31:28.061Z,56.61
2022-11-25T21:34:31.611Z,56.35
2022-11-25T21:38:06.582Z,56.35
2022-11-25T21:41:01.616Z,56.41
2022-11-25T21:46:51.304Z,55.24
2022-11-25T21:50:28.491Z,55.42
2022-11-25T21:57:16.412Z,54.70
2022-11-25T22:00:12.434Z,54.65
2022-11-25T22:05:51.650Z,54.61
2022-11-25T22:08:29.089Z,53.99
2022-11-25T22:10:57.251Z,54.10
2022-11-25T22:13:41.409Z,54.11
2022-11-25T22:16:26.711Z,53.88
2022-11-25T22:19:04.587Z,53.60
2022-11-25T22:21:47.109Z,53.05
2022-11-25T22:27:55.370Z,52.97
2022-11-25T22:30:44.704Z,53.15
2022-11-25T22:33:45.952Z,52.88
2022-11-25T22:37:07.021Z,53.84
2022-11-25T22:40:05.270Z,53.88
2022-11-25T22:42:52.115Z,53.97
2022-11-25T22:45:38.385Z,54.35
2022-11-25T22:48:20.291Z,54.42
2022-11-25T22:51:18.354Z,53.96
2022-11-25T22:57:11.942Z,53.80
2022-11-25T22:59:48.012Z,54.04
2022-11-25T23:02:41.165Z,53.95
2022-11-25T23:05:32.598Z,54.03
2022-11-25T23:08:25.515Z,54.27
2022-11-25T23:10:58.758Z,54.04
2022-11-25T23:13:28.991Z,53.85
2022-11-25T23:19:06.102Z,54.21
2022-11-25T23:21:42.948Z,54.45
2022-11-25T23:24:16.984Z,54.45
2022-11-25T23:26:44.146Z,54.86
2022-11-25T23:29:11.428Z,54.55
2022-11-25T23:31:39.513Z,54.53
2022-11-25T23:34:08.240Z,54.01
2022-11-25T23:36:47.186Z,54.21
2022-11-25T23:39:22.982Z,53.89
2022-11-25T23:41:50.405Z,54.01
2022-11-25T23:44:25.369Z,54.18
2022-11-25T23:46:54.472Z,54.26
2022-11-25T23:49:28.166Z,55.14
2022-11-25T23:51:58.979Z,54.56
2022-11-25T23:54:39.919Z,55.08
2022-11-25T23:57:22.946Z,55.09
